sensor_id;sensor_type;location;lat;lon;timestamp;pressure;altitude;pressure_sealevel;temperature;humidity
29063;BME280;71206;48.564;-123.458;2024-03-07T00:00:14;101320.35;;;7.88;52.81
29063;BME280;71206;48.564;-123.458;2024-03-07T00:02:38;101316.12;;;8.61;52.45
29063;BME280;71206;48.564;-123.458;2024-03-07T00:05:04;101316.57;;;8.89;50.34
29063;BME280;71206;48.564;-123.458;2024-03-07T00:07:29;101314.43;;;8.93;49.57
29063;BME280;71206;48.564;-123.458;2024-03-07T00:09:54;101315.07;;;9.70;49.26
29063;BME280;71206;48.564;-123.458;2024-03-07T00:12:19;101323.63;;;7.83;51.16
29063;BME280;71206;48.564;-123.458;2024-03-07T00:14:45;101330.78;;;5.57;66.97
29063;BME280;71206;48.564;-123.458;2024-03-07T00:17:12;101327.82;;;5.42;73.07
29063;BME280;71206;48.564;-123.458;2024-03-07T00:19:36;101322.18;;;6.94;64.26
29063;BME280;71206;48.564;-123.458;2024-03-07T00:22:02;101333.37;;;4.82;80.08
29063;BME280;71206;48.564;-123.458;2024-03-07T00:24:27;101344.75;;;3.16;99.30
29063;BME280;71206;48.564;-123.458;2024-03-07T00:26:53;101333.33;;;5.89;80.59
29063;BME280;71206;48.564;-123.458;2024-03-07T00:29:19;101332.37;;;5.43;80.81
29063;BME280;71206;48.564;-123.458;2024-03-07T00:31:43;101328.14;;;6.40;73.42
29063;BME280;71206;48.564;-123.458;2024-03-07T00:34:10;101323.95;;;7.15;63.20
29063;BME280;71206;48.564;-123.458;2024-03-07T00:36:34;101323.17;;;5.98;70.03
29063;BME280;71206;48.564;-123.458;2024-03-07T00:39:00;101326.91;;;6.15;69.92
29063;BME280;71206;48.564;-123.458;2024-03-07T00:41:25;101321.22;;;7.24;62.72
29063;BME280;71206;48.564;-123.458;2024-03-07T00:43:50;101320.92;;;8.15;59.05
29063;BME280;71206;48.564;-123.458;2024-03-07T00:46:16;101324.00;;;5.94;63.80
29063;BME280;71206;48.564;-123.458;2024-03-07T00:48:44;101324.47;;;7.48;60.74
29063;BME280;71206;48.564;-123.458;2024-03-07T00:51:06;101326.51;;;7.85;59.77
29063;BME280;71206;48.564;-123.458;2024-03-07T00:53:32;101318.63;;;8.95;55.43
29063;BME280;71206;48.564;-123.458;2024-03-07T00:55:57;101318.89;;;8.03;55.78
29063;BME280;71206;48.564;-123.458;2024-03-07T00:58:23;101322.77;;;7.99;57.30
29063;BME280;71206;48.564;-123.458;2024-03-07T01:00:51;101317.41;;;8.77;55.57
29063;BME280;71206;48.564;-123.458;2024-03-07T01:03:13;101313.33;;;9.59;53.42
29063;BME280;71206;48.564;-123.458;2024-03-07T01:05:39;101316.85;;;8.81;54.01
29063;BME280;71206;48.564;-123.458;2024-03-07T01:08:05;101325.38;;;7.85;56.17
29063;BME280;71206;48.564;-123.458;2024-03-07T01:10:32;101321.81;;;8.30;54.78
29063;BME280;71206;48.564;-123.458;2024-03-07T01:12:55;101315.57;;;8.60;54.67
29063;BME280;71206;48.564;-123.458;2024-03-07T01:15:23;101313.87;;;8.89;52.93
29063;BME280;71206;48.564;-123.458;2024-03-07T01:17:46;101315.59;;;9.18;52.05
29063;BME280;71206;48.564;-123.458;2024-03-07T01:20:15;101314.76;;;9.17;51.10
29063;BME280;71206;48.564;-123.458;2024-03-07T01:22:37;101325.33;;;6.99;56.99
29063;BME280;71206;48.564;-123.458;2024-03-07T01:25:02;101334.04;;;5.56;66.00
29063;BME280;71206;48.564;-123.458;2024-03-07T01:27:28;101333.84;;;5.48;74.66
29063;BME280;71206;48.564;-123.458;2024-03-07T01:29:54;101330.70;;;6.33;67.00
29063;BME280;71206;48.564;-123.458;2024-03-07T01:32:24;101323.36;;;7.25;63.10
29063;BME280;71206;48.564;-123.458;2024-03-07T01:34:44;101322.78;;;6.28;65.81
29063;BME280;71206;48.564;-123.458;2024-03-07T01:37:10;101321.31;;;6.89;64.60
29063;BME280;71206;48.564;-123.458;2024-03-07T01:39:36;101319.98;;;7.41;60.39
29063;BME280;71206;48.564;-123.458;2024-03-07T01:42:01;101318.09;;;7.80;59.67
29063;BME280;71206;48.564;-123.458;2024-03-07T01:44:29;101314.73;;;7.76;57.66
29063;BME280;71206;48.564;-123.458;2024-03-07T01:46:52;101308.13;;;8.49;55.28
29063;BME280;71206;48.564;-123.458;2024-03-07T01:49:17;101304.93;;;8.76;52.90
29063;BME280;71206;48.564;-123.458;2024-03-07T01:51:42;101304.11;;;8.95;52.75
29063;BME280;71206;48.564;-123.458;2024-03-07T01:54:09;101304.12;;;9.19;52.35
29063;BME280;71206;48.564;-123.458;2024-03-07T01:56:39;101301.36;;;9.48;51.51
29063;BME280;71206;48.564;-123.458;2024-03-07T01:59:01;101299.24;;;9.61;51.07
29063;BME280;71206;48.564;-123.458;2024-03-07T02:01:27;101296.23;;;9.78;50.67
29063;BME280;71206;48.564;-123.458;2024-03-07T02:03:49;101296.13;;;9.85;50.16
29063;BME280;71206;48.564;-123.458;2024-03-07T02:06:15;101297.22;;;9.76;50.00
29063;BME280;71206;48.564;-123.458;2024-03-07T02:08:40;101302.24;;;9.44;50.52
29063;BME280;71206;48.564;-123.458;2024-03-07T02:11:07;101304.08;;;9.67;50.54
29063;BME280;71206;48.564;-123.458;2024-03-07T02:13:31;101305.23;;;9.68;50.50
29063;BME280;71206;48.564;-123.458;2024-03-07T02:15:58;101306.78;;;9.80;50.32
29063;BME280;71206;48.564;-123.458;2024-03-07T02:18:23;101308.44;;;9.86;50.37
29063;BME280;71206;48.564;-123.458;2024-03-07T02:20:47;101314.10;;;9.41;51.03
29063;BME280;71206;48.564;-123.458;2024-03-07T02:23:13;101315.17;;;9.25;51.66
29063;BME280;71206;48.564;-123.458;2024-03-07T02:25:39;101314.01;;;9.56;50.87
29063;BME280;71206;48.564;-123.458;2024-03-07T02:28:04;101316.26;;;9.54;50.77
29063;BME280;71206;48.564;-123.458;2024-03-07T02:30:29;101314.58;;;9.33;51.04
29063;BME280;71206;48.564;-123.458;2024-03-07T02:32:55;101317.30;;;9.54;51.10
29063;BME280;71206;48.564;-123.458;2024-03-07T02:35:20;101318.02;;;8.98;51.63
29063;BME280;71206;48.564;-123.458;2024-03-07T02:37:47;101318.84;;;9.24;52.15
29063;BME280;71206;48.564;-123.458;2024-03-07T02:40:15;101319.02;;;9.53;51.45
29063;BME280;71206;48.564;-123.458;2024-03-07T02:42:36;101319.20;;;9.38;51.28
29063;BME280;71206;48.564;-123.458;2024-03-07T02:45:03;101321.70;;;9.53;51.17
29063;BME280;71206;48.564;-123.458;2024-03-07T02:47:27;101323.03;;;9.65;51.23
29063;BME280;71206;48.564;-123.458;2024-03-07T02:49:53;101322.65;;;9.64;50.97
29063;BME280;71206;48.564;-123.458;2024-03-07T02:52:19;101327.36;;;9.81;50.93
29063;BME280;71206;48.564;-123.458;2024-03-07T02:54:43;101330.41;;;9.43;51.28
29063;BME280;71206;48.564;-123.458;2024-03-07T02:57:08;101332.64;;;9.60;50.95
29063;BME280;71206;48.564;-123.458;2024-03-07T02:59:34;101332.50;;;9.43;51.26
29063;BME280;71206;48.564;-123.458;2024-03-07T03:02:00;101334.65;;;9.48;51.34
29063;BME280;71206;48.564;-123.458;2024-03-07T03:04:26;101330.75;;;9.49;51.29
29063;BME280;71206;48.564;-123.458;2024-03-07T03:06:50;101326.75;;;9.52;51.48
29063;BME280;71206;48.564;-123.458;2024-03-07T03:09:16;101326.43;;;9.56;51.50
29063;BME280;71206;48.564;-123.458;2024-03-07T03:11:41;101323.86;;;9.41;50.64
29063;BME280;71206;48.564;-123.458;2024-03-07T03:14:06;101324.68;;;9.64;49.78
29063;BME280;71206;48.564;-123.458;2024-03-07T03:16:37;101324.73;;;9.88;50.14
29063;BME280;71206;48.564;-123.458;2024-03-07T03:18:57;101328.24;;;9.84;50.34
29063;BME280;71206;48.564;-123.458;2024-03-07T03:21:22;101337.63;;;6.96;58.42
29063;BME280;71206;48.564;-123.458;2024-03-07T03:23:48;101339.39;;;8.13;55.37
29063;BME280;71206;48.564;-123.458;2024-03-07T03:26:15;101337.96;;;8.71;53.74
29063;BME280;71206;48.564;-123.458;2024-03-07T03:28:40;101334.49;;;8.88;53.25
29063;BME280;71206;48.564;-123.458;2024-03-07T03:31:04;101336.12;;;8.98;53.30
29063;BME280;71206;48.564;-123.458;2024-03-07T03:33:29;101336.42;;;9.07;53.17
29063;BME280;71206;48.564;-123.458;2024-03-07T03:35:56;101338.60;;;8.56;54.00
29063;BME280;71206;48.564;-123.458;2024-03-07T03:38:21;101334.77;;;9.07;52.97
29063;BME280;71206;48.564;-123.458;2024-03-07T03:40:45;101332.60;;;8.97;53.20
29063;BME280;71206;48.564;-123.458;2024-03-07T03:43:11;101328.48;;;8.91;53.12
29063;BME280;71206;48.564;-123.458;2024-03-07T03:45:39;101332.31;;;9.29;52.60
29063;BME280;71206;48.564;-123.458;2024-03-07T03:48:03;101336.68;;;8.85;53.05
29063;BME280;71206;48.564;-123.458;2024-03-07T03:50:28;101340.71;;;9.09;52.98
29063;BME280;71206;48.564;-123.458;2024-03-07T03:52:53;101343.90;;;8.93;53.26
29063;BME280;71206;48.564;-123.458;2024-03-07T03:55:18;101343.50;;;9.06;52.91
29063;BME280;71206;48.564;-123.458;2024-03-07T03:57:49;101342.69;;;9.12;52.78
29063;BME280;71206;48.564;-123.458;2024-03-07T04:00:11;101337.73;;;9.22;52.41
29063;BME280;71206;48.564;-123.458;2024-03-07T04:02:34;101339.85;;;9.23;52.66
29063;BME280;71206;48.564;-123.458;2024-03-07T04:05:00;101343.09;;;8.43;53.75
29063;BME280;71206;48.564;-123.458;2024-03-07T04:07:25;101343.54;;;9.04;53.14
29063;BME280;71206;48.564;-123.458;2024-03-07T04:09:51;101344.12;;;9.34;52.66
29063;BME280;71206;48.564;-123.458;2024-03-07T04:12:19;101344.17;;;8.77;53.02
29063;BME280;71206;48.564;-123.458;2024-03-07T04:14:42;101340.02;;;8.83;53.05
29063;BME280;71206;48.564;-123.458;2024-03-07T04:17:08;101340.94;;;8.55;53.20
29063;BME280;71206;48.564;-123.458;2024-03-07T04:19:35;101342.91;;;8.95;52.91
29063;BME280;71206;48.564;-123.458;2024-03-07T04:21:59;101346.20;;;8.92;52.87
29063;BME280;71206;48.564;-123.458;2024-03-07T04:24:23;101350.03;;;8.59;54.22
29063;BME280;71206;48.564;-123.458;2024-03-07T04:26:49;101341.68;;;8.72;53.33
29063;BME280;71206;48.564;-123.458;2024-03-07T04:29:14;101342.04;;;9.06;52.90
29063;BME280;71206;48.564;-123.458;2024-03-07T04:31:40;101344.18;;;8.53;53.77
29063;BME280;71206;48.564;-123.458;2024-03-07T04:34:09;101344.50;;;8.77;53.31
29063;BME280;71206;48.564;-123.458;2024-03-07T04:36:31;101347.00;;;9.09;52.91
29063;BME280;71206;48.564;-123.458;2024-03-07T04:38:58;101351.16;;;8.69;53.32
29063;BME280;71206;48.564;-123.458;2024-03-07T04:41:22;101352.07;;;8.64;53.49
29063;BME280;71206;48.564;-123.458;2024-03-07T04:43:47;101351.09;;;8.80;53.18
29063;BME280;71206;48.564;-123.458;2024-03-07T04:46:13;101357.34;;;8.51;54.08
29063;BME280;71206;48.564;-123.458;2024-03-07T04:48:38;101357.98;;;8.83;53.90
29063;BME280;71206;48.564;-123.458;2024-03-07T04:51:04;101357.43;;;8.96;53.34
29063;BME280;71206;48.564;-123.458;2024-03-07T04:53:33;101365.82;;;7.79;57.13
29063;BME280;71206;48.564;-123.458;2024-03-07T04:55:54;101367.40;;;8.15;56.24
29063;BME280;71206;48.564;-123.458;2024-03-07T04:58:20;101365.77;;;8.49;55.02
29063;BME280;71206;48.564;-123.458;2024-03-07T05:00:44;101369.97;;;8.67;54.48
29063;BME280;71206;48.564;-123.458;2024-03-07T05:03:10;101372.95;;;8.58;54.25
29063;BME280;71206;48.564;-123.458;2024-03-07T05:05:36;101371.78;;;8.43;53.98
29063;BME280;71206;48.564;-123.458;2024-03-07T05:08:01;101368.11;;;8.93;53.76
29063;BME280;71206;48.564;-123.458;2024-03-07T05:10:27;101367.86;;;8.98;53.36
29063;BME280;71206;48.564;-123.458;2024-03-07T05:12:52;101374.41;;;9.02;53.29
29063;BME280;71206;48.564;-123.458;2024-03-07T05:15:18;101381.15;;;9.15;52.77
29063;BME280;71206;48.564;-123.458;2024-03-07T05:17:43;101388.81;;;8.20;55.18
29063;BME280;71206;48.564;-123.458;2024-03-07T05:20:12;101391.05;;;8.59;54.27
29063;BME280;71206;48.564;-123.458;2024-03-07T05:22:34;101391.16;;;8.69;54.18
29063;BME280;71206;48.564;-123.458;2024-03-07T05:24:59;101392.78;;;8.44;54.72
29063;BME280;71206;48.564;-123.458;2024-03-07T05:27:25;101396.36;;;8.32;56.00
29063;BME280;71206;48.564;-123.458;2024-03-07T05:29:50;101395.82;;;8.37;54.84
29063;BME280;71206;48.564;-123.458;2024-03-07T05:32:22;101396.74;;;8.26;55.25
29063;BME280;71206;48.564;-123.458;2024-03-07T05:34:42;101395.44;;;8.19;55.37
29063;BME280;71206;48.564;-123.458;2024-03-07T05:37:07;101393.32;;;8.53;54.42
29063;BME280;71206;48.564;-123.458;2024-03-07T05:39:33;101394.25;;;8.50;54.31
29063;BME280;71206;48.564;-123.458;2024-03-07T05:41:58;101396.62;;;8.10;54.24
29063;BME280;71206;48.564;-123.458;2024-03-07T05:44:23;101393.61;;;8.35;54.61
29063;BME280;71206;48.564;-123.458;2024-03-07T05:46:49;101393.91;;;8.38;54.10
29063;BME280;71206;48.564;-123.458;2024-03-07T05:49:15;101392.49;;;8.49;53.66
29063;BME280;71206;48.564;-123.458;2024-03-07T05:51:39;101393.81;;;8.51;53.56
29063;BME280;71206;48.564;-123.458;2024-03-07T05:54:06;101389.16;;;8.53;53.37
29063;BME280;71206;48.564;-123.458;2024-03-07T05:56:30;101389.09;;;8.40;53.91
29063;BME280;71206;48.564;-123.458;2024-03-07T05:58:56;101389.72;;;8.36;54.41
29063;BME280;71206;48.564;-123.458;2024-03-07T06:01:21;101390.87;;;8.45;54.44
29063;BME280;71206;48.564;-123.458;2024-03-07T06:03:47;101394.52;;;8.72;53.71
29063;BME280;71206;48.564;-123.458;2024-03-07T06:06:12;101400.31;;;8.44;53.36
29063;BME280;71206;48.564;-123.458;2024-03-07T06:08:38;101403.65;;;8.65;53.45
29063;BME280;71206;48.564;-123.458;2024-03-07T06:11:03;101405.97;;;8.58;53.67
29063;BME280;71206;48.564;-123.458;2024-03-07T06:13:28;101405.50;;;8.28;53.65
29063;BME280;71206;48.564;-123.458;2024-03-07T06:15:54;101410.98;;;8.62;53.48
29063;BME280;71206;48.564;-123.458;2024-03-07T06:18:19;101411.26;;;8.32;53.81
29063;BME280;71206;48.564;-123.458;2024-03-07T06:20:46;101415.79;;;8.30;53.96
29063;BME280;71206;48.564;-123.458;2024-03-07T06:23:10;101418.88;;;8.62;53.51
29063;BME280;71206;48.564;-123.458;2024-03-07T06:25:35;101419.65;;;8.63;53.03
29063;BME280;71206;48.564;-123.458;2024-03-07T06:28:02;101423.12;;;8.64;53.09
29063;BME280;71206;48.564;-123.458;2024-03-07T06:30:26;101424.30;;;8.70;53.02
29063;BME280;71206;48.564;-123.458;2024-03-07T06:32:54;101423.07;;;8.66;53.00
29063;BME280;71206;48.564;-123.458;2024-03-07T06:35:18;101423.30;;;8.03;54.18
29063;BME280;71206;48.564;-123.458;2024-03-07T06:37:43;101425.08;;;8.25;53.87
29063;BME280;71206;48.564;-123.458;2024-03-07T06:40:10;101427.57;;;8.20;54.16
29063;BME280;71206;48.564;-123.458;2024-03-07T06:42:34;101429.42;;;8.25;53.98
29063;BME280;71206;48.564;-123.458;2024-03-07T06:45:03;101427.80;;;8.12;54.41
29063;BME280;71206;48.564;-123.458;2024-03-07T06:47:25;101426.55;;;8.06;54.82
29063;BME280;71206;48.564;-123.458;2024-03-07T06:49:51;101420.88;;;7.85;55.08
29063;BME280;71206;48.564;-123.458;2024-03-07T06:52:16;101419.48;;;7.89;55.15
29063;BME280;71206;48.564;-123.458;2024-03-07T06:54:41;101422.33;;;8.06;54.52
29063;BME280;71206;48.564;-123.458;2024-03-07T06:57:06;101421.05;;;8.03;54.01
29063;BME280;71206;48.564;-123.458;2024-03-07T06:59:42;101421.58;;;7.75;55.30
29063;BME280;71206;48.564;-123.458;2024-03-07T07:02:00;101422.42;;;7.62;55.81
29063;BME280;71206;48.564;-123.458;2024-03-07T07:04:23;101421.89;;;8.12;55.17
29063;BME280;71206;48.564;-123.458;2024-03-07T07:06:49;101422.17;;;8.53;54.54
29063;BME280;71206;48.564;-123.458;2024-03-07T07:09:13;101421.05;;;8.11;54.19
29063;BME280;71206;48.564;-123.458;2024-03-07T07:11:40;101422.07;;;7.75;55.35
29063;BME280;71206;48.564;-123.458;2024-03-07T07:14:05;101416.24;;;8.12;55.30
29063;BME280;71206;48.564;-123.458;2024-03-07T07:16:30;101417.52;;;8.08;54.59
29063;BME280;71206;48.564;-123.458;2024-03-07T07:18:55;101415.28;;;8.09;54.49
29063;BME280;71206;48.564;-123.458;2024-03-07T07:21:21;101411.68;;;7.86;55.04
29063;BME280;71206;48.564;-123.458;2024-03-07T07:23:47;101413.32;;;7.93;54.56
29063;BME280;71206;48.564;-123.458;2024-03-07T07:26:13;101411.66;;;7.59;55.58
29063;BME280;71206;48.564;-123.458;2024-03-07T07:28:37;101410.44;;;7.51;55.68
29063;BME280;71206;48.564;-123.458;2024-03-07T07:31:05;101412.28;;;7.71;55.55
29063;BME280;71206;48.564;-123.458;2024-03-07T07:33:28;101412.97;;;8.07;55.67
29063;BME280;71206;48.564;-123.458;2024-03-07T07:35:55;101416.50;;;7.69;55.08
29063;BME280;71206;48.564;-123.458;2024-03-07T07:38:24;101416.03;;;8.29;54.45
29063;BME280;71206;48.564;-123.458;2024-03-07T07:40:45;101414.54;;;7.76;55.53
29063;BME280;71206;48.564;-123.458;2024-03-07T07:43:10;101413.77;;;7.56;54.99
29063;BME280;71206;48.564;-123.458;2024-03-07T07:45:37;101413.59;;;7.77;54.15
29063;BME280;71206;48.564;-123.458;2024-03-07T07:48:02;101411.69;;;7.72;54.04
29063;BME280;71206;48.564;-123.458;2024-03-07T07:50:26;101410.32;;;7.41;54.78
29063;BME280;71206;48.564;-123.458;2024-03-07T07:52:54;101413.70;;;7.69;54.33
29063;BME280;71206;48.564;-123.458;2024-03-07T07:55:18;101413.99;;;7.79;53.52
29063;BME280;71206;48.564;-123.458;2024-03-07T07:57:45;101417.64;;;7.34;55.97
29063;BME280;71206;48.564;-123.458;2024-03-07T08:00:09;101419.90;;;7.51;55.21
29063;BME280;71206;48.564;-123.458;2024-03-07T08:02:33;101420.65;;;7.39;54.69
29063;BME280;71206;48.564;-123.458;2024-03-07T08:04:59;101422.70;;;7.34;54.56
29063;BME280;71206;48.564;-123.458;2024-03-07T08:07:24;101423.38;;;7.58;55.32
29063;BME280;71206;48.564;-123.458;2024-03-07T08:09:50;101425.50;;;7.39;54.85
29063;BME280;71206;48.564;-123.458;2024-03-07T08:12:15;101425.34;;;7.44;55.19
29063;BME280;71206;48.564;-123.458;2024-03-07T08:14:40;101427.01;;;7.54;55.02
29063;BME280;71206;48.564;-123.458;2024-03-07T08:17:06;101430.05;;;7.14;54.70
29063;BME280;71206;48.564;-123.458;2024-03-07T08:19:35;101431.58;;;7.25;54.80
29063;BME280;71206;48.564;-123.458;2024-03-07T08:21:57;101432.14;;;7.27;54.64
29063;BME280;71206;48.564;-123.458;2024-03-07T08:24:23;101433.77;;;7.20;53.82
29063;BME280;71206;48.564;-123.458;2024-03-07T08:26:48;101438.69;;;6.32;55.36
29063;BME280;71206;48.564;-123.458;2024-03-07T08:29:13;101439.40;;;6.68;55.76
29063;BME280;71206;48.564;-123.458;2024-03-07T08:31:40;101440.12;;;7.04;54.91
29063;BME280;71206;48.564;-123.458;2024-03-07T08:34:04;101439.42;;;6.59;55.41
29063;BME280;71206;48.564;-123.458;2024-03-07T08:36:30;101441.02;;;6.71;54.71
29063;BME280;71206;48.564;-123.458;2024-03-07T08:38:55;101442.36;;;6.74;54.63
29063;BME280;71206;48.564;-123.458;2024-03-07T08:41:21;101439.46;;;6.90;53.79
29063;BME280;71206;48.564;-123.458;2024-03-07T08:43:48;101443.05;;;6.67;53.94
29063;BME280;71206;48.564;-123.458;2024-03-07T08:46:12;101452.48;;;6.79;53.57
29063;BME280;71206;48.564;-123.458;2024-03-07T08:48:38;101453.56;;;6.94;53.07
29063;BME280;71206;48.564;-123.458;2024-03-07T08:51:04;101456.65;;;7.08;52.87
29063;BME280;71206;48.564;-123.458;2024-03-07T08:53:29;101459.21;;;7.24;52.36
29063;BME280;71206;48.564;-123.458;2024-03-07T08:55:55;101462.99;;;7.09;52.70
29063;BME280;71206;48.564;-123.458;2024-03-07T08:58:21;101467.42;;;6.70;52.96
29063;BME280;71206;48.564;-123.458;2024-03-07T09:00:46;101469.63;;;6.12;54.04
29063;BME280;71206;48.564;-123.458;2024-03-07T09:03:11;101467.51;;;5.96;55.02
29063;BME280;71206;48.564;-123.458;2024-03-07T09:05:37;101468.30;;;6.26;54.86
29063;BME280;71206;48.564;-123.458;2024-03-07T09:08:03;101467.92;;;5.81;54.72
29063;BME280;71206;48.564;-123.458;2024-03-07T09:10:27;101472.51;;;6.29;53.83
29063;BME280;71206;48.564;-123.458;2024-03-07T09:12:56;101475.04;;;6.64;53.70
29063;BME280;71206;48.564;-123.458;2024-03-07T09:15:18;101476.46;;;6.17;53.95
29063;BME280;71206;48.564;-123.458;2024-03-07T09:17:44;101478.82;;;5.38;55.02
29063;BME280;71206;48.564;-123.458;2024-03-07T09:20:10;101479.89;;;6.14;54.79
29063;BME280;71206;48.564;-123.458;2024-03-07T09:22:36;101484.90;;;5.82;53.98
29063;BME280;71206;48.564;-123.458;2024-03-07T09:25:01;101483.17;;;6.31;53.82
29063;BME280;71206;48.564;-123.458;2024-03-07T09:27:26;101484.81;;;6.18;54.44
29063;BME280;71206;48.564;-123.458;2024-03-07T09:29:52;101490.67;;;5.99;54.55
29063;BME280;71206;48.564;-123.458;2024-03-07T09:32:17;101496.17;;;5.89;55.15
29063;BME280;71206;48.564;-123.458;2024-03-07T09:34:44;101493.39;;;5.65;55.53
29063;BME280;71206;48.564;-123.458;2024-03-07T09:37:09;101492.58;;;5.77;54.92
29063;BME280;71206;48.564;-123.458;2024-03-07T09:39:36;101501.91;;;5.12;56.69
29063;BME280;71206;48.564;-123.458;2024-03-07T09:42:00;101501.08;;;5.19;57.12
29063;BME280;71206;48.564;-123.458;2024-03-07T09:44:27;101502.94;;;5.11;57.28
29063;BME280;71206;48.564;-123.458;2024-03-07T09:46:55;101503.65;;;4.97;58.18
29063;BME280;71206;48.564;-123.458;2024-03-07T09:49:16;101505.00;;;5.45;57.26
29063;BME280;71206;48.564;-123.458;2024-03-07T09:51:41;101503.52;;;4.34;59.29
29063;BME280;71206;48.564;-123.458;2024-03-07T09:54:12;101506.50;;;5.05;58.47
29063;BME280;71206;48.564;-123.458;2024-03-07T09:56:32;101499.18;;;5.61;55.98
29063;BME280;71206;48.564;-123.458;2024-03-07T09:58:59;101498.61;;;5.79;55.07
29063;BME280;71206;48.564;-123.458;2024-03-07T10:01:28;101495.64;;;5.90;54.37
29063;BME280;71206;48.564;-123.458;2024-03-07T10:03:52;101495.42;;;5.98;54.12
29063;BME280;71206;48.564;-123.458;2024-03-07T10:06:15;101497.92;;;5.93;54.52
29063;BME280;71206;48.564;-123.458;2024-03-07T10:08:41;101497.10;;;5.85;55.06
29063;BME280;71206;48.564;-123.458;2024-03-07T10:11:06;101492.58;;;6.06;54.78
29063;BME280;71206;48.564;-123.458;2024-03-07T10:13:32;101502.50;;;4.93;57.08
29063;BME280;71206;48.564;-123.458;2024-03-07T10:15:57;101495.94;;;5.68;55.14
29063;BME280;71206;48.564;-123.458;2024-03-07T10:18:23;101499.95;;;6.01;54.90
29063;BME280;71206;48.564;-123.458;2024-03-07T10:20:48;101503.15;;;6.08;54.21
29063;BME280;71206;48.564;-123.458;2024-03-07T10:23:19;101509.02;;;5.90;54.03
29063;BME280;71206;48.564;-123.458;2024-03-07T10:25:41;101516.10;;;5.84;54.42
29063;BME280;71206;48.564;-123.458;2024-03-07T10:28:05;101522.63;;;6.11;53.71
29063;BME280;71206;48.564;-123.458;2024-03-07T10:30:30;101521.44;;;6.15;53.60
29063;BME280;71206;48.564;-123.458;2024-03-07T10:32:58;101524.97;;;6.10;54.05
29063;BME280;71206;48.564;-123.458;2024-03-07T10:35:22;101525.58;;;5.98;54.35
29063;BME280;71206;48.564;-123.458;2024-03-07T10:37:47;101527.28;;;6.19;54.04
29063;BME280;71206;48.564;-123.458;2024-03-07T10:40:13;101521.86;;;6.10;54.05
29063;BME280;71206;48.564;-123.458;2024-03-07T10:42:43;101514.88;;;6.03;54.91
29063;BME280;71206;48.564;-123.458;2024-03-07T10:45:05;101504.58;;;6.15;54.56
29063;BME280;71206;48.564;-123.458;2024-03-07T10:47:30;101503.47;;;6.51;54.58
29063;BME280;71206;48.564;-123.458;2024-03-07T10:50:07;101505.81;;;6.44;54.06
29063;BME280;71206;48.564;-123.458;2024-03-07T10:52:28;101508.76;;;6.07;55.24
29063;BME280;71206;48.564;-123.458;2024-03-07T10:54:55;101508.16;;;6.50;54.04
29063;BME280;71206;48.564;-123.458;2024-03-07T10:57:19;101506.06;;;6.61;54.00
29063;BME280;71206;48.564;-123.458;2024-03-07T10:59:39;101509.08;;;6.77;54.10
29063;BME280;71206;48.564;-123.458;2024-03-07T11:02:11;101517.79;;;5.12;56.97
29063;BME280;71206;48.564;-123.458;2024-03-07T11:04:27;101509.77;;;5.72;57.13
29063;BME280;71206;48.564;-123.458;2024-03-07T11:06:52;101507.47;;;6.21;55.65
29063;BME280;71206;48.564;-123.458;2024-03-07T11:09:19;101510.27;;;6.26;55.89
29063;BME280;71206;48.564;-123.458;2024-03-07T11:11:44;101510.94;;;6.28;56.26
29063;BME280;71206;48.564;-123.458;2024-03-07T11:14:11;101516.20;;;6.33;56.52
29063;BME280;71206;48.564;-123.458;2024-03-07T11:16:37;101523.43;;;6.14;56.67
29063;BME280;71206;48.564;-123.458;2024-03-07T11:21:41;101528.10;;;6.38;56.46
29063;BME280;71206;48.564;-123.458;2024-03-07T11:23:52;101526.77;;;6.59;56.06
29063;BME280;71206;48.564;-123.458;2024-03-07T11:26:16;101525.83;;;6.87;56.00
29063;BME280;71206;48.564;-123.458;2024-03-07T11:28:42;101520.01;;;6.85;55.92
29063;BME280;71206;48.564;-123.458;2024-03-07T11:31:12;101518.51;;;6.64;56.14
29063;BME280;71206;48.564;-123.458;2024-03-07T11:33:33;101518.10;;;7.10;56.09
29063;BME280;71206;48.564;-123.458;2024-03-07T11:35:58;101520.31;;;7.28;55.58
29063;BME280;71206;48.564;-123.458;2024-03-07T11:38:31;101523.77;;;7.21;55.09
29063;BME280;71206;48.564;-123.458;2024-03-07T11:40:51;101522.81;;;7.34;54.71
29063;BME280;71206;48.564;-123.458;2024-03-07T11:43:15;101528.22;;;7.01;55.74
29063;BME280;71206;48.564;-123.458;2024-03-07T11:45:40;101537.13;;;5.99;60.72
29063;BME280;71206;48.564;-123.458;2024-03-07T11:48:08;101544.98;;;5.30;65.16
29063;BME280;71206;48.564;-123.458;2024-03-07T11:50:39;101537.94;;;5.75;64.52
29063;BME280;71206;48.564;-123.458;2024-03-07T11:52:57;101528.07;;;6.25;62.09
29063;BME280;71206;48.564;-123.458;2024-03-07T11:55:23;101530.84;;;6.81;59.71
29063;BME280;71206;48.564;-123.458;2024-03-07T11:57:48;101532.75;;;6.71;59.13
29063;BME280;71206;48.564;-123.458;2024-03-07T12:00:15;101534.10;;;6.79;58.92
29063;BME280;71206;48.564;-123.458;2024-03-07T12:02:40;101539.75;;;6.94;58.06
29063;BME280;71206;48.564;-123.458;2024-03-07T12:05:07;101539.32;;;6.84;57.35
29063;BME280;71206;48.564;-123.458;2024-03-07T12:07:30;101538.46;;;6.54;57.66
29063;BME280;71206;48.564;-123.458;2024-03-07T12:09:55;101538.45;;;6.17;59.71
29063;BME280;71206;48.564;-123.458;2024-03-07T12:12:22;101537.58;;;6.73;58.33
29063;BME280;71206;48.564;-123.458;2024-03-07T12:14:47;101539.34;;;6.91;57.14
29063;BME280;71206;48.564;-123.458;2024-03-07T12:17:12;101538.92;;;6.56;56.86
29063;BME280;71206;48.564;-123.458;2024-03-07T12:19:37;101540.96;;;6.61;56.26
29063;BME280;71206;48.564;-123.458;2024-03-07T12:22:08;101544.47;;;6.57;55.76